Time;durP1;ratioP1;P1;durP2;ratioP2;P2;SDS_P1;SDS_P2;PMS_P1;PMS_P2;Temp;Humidity;BMP_temperature;BMP_pressure;BME280_temperature;BME280_humidity;BME280_pressure;Samples;Min_cycle;Max_cycle;Signal;HPM_P1;HPM_P2
2020/12/23 00:02:04;;;;;;;8.55;4.70;;;21.50;50.60;;;;;;1481215;94;21433;-36
2020/12/23 00:04:31;;;;;;;12.65;5.15;;;21.50;50.70;;;;;;1480362;93;21929;-36
2020/12/23 00:06:59;;;;;;;7.85;4.58;;;21.50;50.70;;;;;;1464190;95;21325;-35
2020/12/23 00:09:27;;;;;;;13.35;5.00;;;21.50;50.70;;;;;;1481489;95;21905;-35
2020/12/23 00:11:55;;;;;;;9.00;4.35;;;21.50;50.70;;;;;;1481741;94;21225;-35
2020/12/23 00:14:23;;;;;;;13.30;4.50;;;21.50;50.80;;;;;;1480511;93;21715;-36
2020/12/23 00:16:51;;;;;;;10.78;4.67;;;21.50;50.80;;;;;;1481676;95;22728;-36
2020/12/23 00:19:19;;;;;;;11.73;4.80;;;21.50;50.80;;;;;;1472314;93;21274;-35
2020/12/23 00:21:47;;;;;;;9.55;4.47;;;21.40;50.70;;;;;;1484279;94;21225;-34
2020/12/23 00:24:14;;;;;;;9.73;4.45;;;21.40;50.80;;;;;;1481650;93;21304;-35
2020/12/23 00:26:46;;;;;;;10.78;4.70;;;21.40;50.70;;;;;;1469973;95;21260;-35
2020/12/23 00:29:14;;;;;;;8.88;3.87;;;21.50;50.80;;;;;;1483507;93;21193;-34
2020/12/23 00:31:42;;;;;;;10.55;4.85;;;21.40;50.70;;;;;;1480353;93;21281;-37
2020/12/23 00:34:10;;;;;;;8.15;4.10;;;21.40;50.70;;;;;;1463132;96;21913;-36
2020/12/23 00:36:37;;;;;;;9.53;3.72;;;21.40;50.70;;;;;;1477920;94;21225;-36
2020/12/23 00:39:05;;;;;;;8.83;4.30;;;21.40;50.70;;;;;;1462053;96;21221;-37
2020/12/23 00:41:33;;;;;;;9.20;3.92;;;21.40;50.70;;;;;;1484893;94;21201;-35
2020/12/23 00:44:01;;;;;;;10.03;4.45;;;21.40;50.70;;;;;;1478743;94;22790;-35
2020/12/23 00:46:28;;;;;;;8.60;4.53;;;21.40;50.70;;;;;;1494684;93;21232;-34
2020/12/23 00:48:56;;;;;;;10.60;4.35;;;21.40;50.70;;;;;;1506537;93;21243;-36
2020/12/23 00:51:23;;;;;;;7.00;3.80;;;21.40;50.70;;;;;;1507857;93;21830;-35
2020/12/23 00:53:51;;;;;;;7.67;4.05;;;21.40;50.70;;;;;;1510575;93;21510;-35
2020/12/23 00:56:20;;;;;;;8.30;4.00;;;21.40;50.80;;;;;;1513562;93;21290;-36
2020/12/23 00:58:48;;;;;;;11.57;4.28;;;21.40;50.70;;;;;;1475069;94;21770;-36
2020/12/23 01:01:16;;;;;;;8.25;3.67;;;21.40;50.70;;;;;;1507116;93;21267;-35
2020/12/23 01:03:44;;;;;;;8.73;3.75;;;21.40;50.80;;;;;;1509106;93;21697;-35
2020/12/23 01:06:15;;;;;;;9.38;3.85;;;21.40;50.70;;;;;;1477233;93;21224;-35
2020/12/23 01:08:43;;;;;;;9.50;4.05;;;21.40;50.70;;;;;;1513016;93;21371;-35
2020/12/23 01:11:12;;;;;;;8.38;4.03;;;21.40;50.80;;;;;;1508959;93;21224;-36
2020/12/23 01:13:40;;;;;;;11.18;4.33;;;21.40;50.70;;;;;;1495697;93;21170;-35
2020/12/23 01:16:08;;;;;;;7.50;4.08;;;21.40;50.70;;;;;;1511619;93;21181;-37
2020/12/23 01:18:36;;;;;;;9.45;4.17;;;21.40;50.70;;;;;;1512282;93;21314;-35
2020/12/23 01:21:03;;;;;;;6.83;3.35;;;21.40;50.70;;;;;;1512248;93;21263;-35
2020/12/23 01:23:31;;;;;;;8.40;4.03;;;21.40;50.70;;;;;;1515699;93;21244;-35
2020/12/23 01:25:59;;;;;;;9.08;3.70;;;21.40;50.70;;;;;;1490985;94;21311;-34
2020/12/23 01:28:26;;;;;;;6.87;3.45;;;21.40;50.70;;;;;;1515910;93;21899;-34
2020/12/23 01:30:54;;;;;;;8.60;3.65;;;21.40;50.70;;;;;;1494438;94;21252;-35
2020/12/23 01:33:22;;;;;;;10.38;3.98;;;21.40;50.60;;;;;;1491642;93;21246;-35
2020/12/23 01:35:49;;;;;;;5.30;3.50;;;21.40;50.60;;;;;;1510308;93;21523;-34
2020/12/23 01:38:17;;;;;;;10.13;3.62;;;21.40;50.70;;;;;;1507660;93;21192;-35
2020/12/23 01:40:45;;;;;;;10.58;4.30;;;21.40;50.60;;;;;;1514971;93;21437;-35
2020/12/23 01:43:13;;;;;;;7.53;3.65;;;21.40;50.70;;;;;;1512365;93;21252;-37
2020/12/23 01:45:41;;;;;;;8.53;4.17;;;21.40;50.70;;;;;;1466721;95;21303;-34
2020/12/23 01:48:14;;;;;;;7.03;3.17;;;21.40;50.60;;;;;;1465802;95;21252;-35
2020/12/23 01:50:42;;;;;;;6.40;3.37;;;21.40;50.70;;;;;;1463384;95;21225;-35
2020/12/23 01:53:10;;;;;;;5.72;3.42;;;21.40;50.70;;;;;;1465454;95;21225;-36
2020/12/23 01:55:38;;;;;;;7.50;3.25;;;21.40;50.70;;;;;;1479381;94;21316;-34
2020/12/23 01:58:05;;;;;;;7.60;3.90;;;21.30;50.60;;;;;;1476797;93;21225;-35
2020/12/23 02:00:33;;;;;;;6.17;3.45;;;21.30;50.60;;;;;;1475874;95;21634;-35
2020/12/23 02:03:04;;;;;;;6.83;3.75;;;21.30;50.60;;;;;;1474490;94;21221;-34
2020/12/23 02:05:32;;;;;;;7.17;3.60;;;21.30;50.60;;;;;;1462667;94;21230;-36
2020/12/23 02:08:00;;;;;;;8.78;4.12;;;21.30;50.60;;;;;;1480754;95;21238;-35
2020/12/23 02:10:28;;;;;;;6.92;3.30;;;21.30;50.70;;;;;;1462336;95;21292;-34
2020/12/23 02:12:56;;;;;;;7.08;3.52;;;21.30;50.60;;;;;;1460030;95;21206;-35
2020/12/23 02:15:24;;;;;;;7.67;3.67;;;21.30;50.60;;;;;;1479659;94;21318;-35
2020/12/23 02:17:51;;;;;;;5.42;2.87;;;21.30;50.60;;;;;;1473256;93;21818;-35
2020/12/23 02:20:19;;;;;;;6.20;3.37;;;21.30;50.60;;;;;;1475296;94;21253;-35
2020/12/23 02:22:47;;;;;;;5.37;2.80;;;21.30;50.60;;;;;;1476294;94;21290;-34
2020/12/23 02:25:15;;;;;;;8.28;3.55;;;21.30;50.60;;;;;;1460936;95;21249;-35
2020/12/23 02:27:43;;;;;;;7.60;3.47;;;21.30;50.60;;;;;;1475805;95;21869;-35
2020/12/23 02:30:13;;;;;;;6.15;3.30;;;21.30;50.60;;;;;;1461175;95;21744;-36
2020/12/23 02:32:40;;;;;;;5.92;3.47;;;21.30;50.60;;;;;;1475634;95;21229;-35
2020/12/23 02:35:10;;;;;;;6.75;3.17;;;21.30;50.60;;;;;;1479823;94;21349;-36
2020/12/23 02:37:38;;;;;;;6.37;3.22;;;21.30;50.60;;;;;;1461815;95;21681;-34
2020/12/23 02:40:06;;;;;;;6.80;3.20;;;21.30;50.60;;;;;;1478620;95;21831;-36
2020/12/23 02:42:34;;;;;;;6.17;3.00;;;21.30;50.60;;;;;;1479143;94;21196;-34
2020/12/23 02:45:01;;;;;;;6.25;3.15;;;21.30;50.60;;;;;;1461963;95;21218;-36
2020/12/23 02:47:29;;;;;;;7.58;3.33;;;21.30;50.60;;;;;;1481568;94;21297;-35
2020/12/23 02:49:57;;;;;;;5.37;2.60;;;21.30;50.70;;;;;;1463854;95;21297;-35
2020/12/23 02:52:24;;;;;;;5.58;3.25;;;21.30;50.60;;;;;;1474935;94;21197;-35
2020/12/23 02:54:52;;;;;;;6.78;2.85;;;21.30;50.60;;;;;;1473788;94;21617;-35
2020/12/23 02:57:20;;;;;;;5.50;2.98;;;21.40;50.60;;;;;;1476209;94;21201;-35
2020/12/23 02:59:47;;;;;;;9.35;3.58;;;21.30;50.50;;;;;;1476557;94;21344;-36
2020/12/23 03:02:15;;;;;;;5.33;2.70;;;21.30;50.40;;;;;;1474026;93;21694;-36
2020/12/23 03:04:43;;;;;;;6.12;2.83;;;21.40;50.50;;;;;;1466390;95;21282;-36
2020/12/23 03:07:10;;;;;;;6.42;3.27;;;21.40;50.50;;;;;;1474334;94;21206;-35
2020/12/23 03:09:38;;;;;;;5.47;2.87;;;21.40;50.40;;;;;;1461236;95;21350;-36
2020/12/23 03:12:05;;;;;;;5.83;2.95;;;21.40;50.40;;;;;;1462067;96;21366;-36
2020/12/23 03:14:33;;;;;;;9.93;2.92;;;21.40;50.40;;;;;;1471926;95;21203;-35
2020/12/23 03:17:01;;;;;;;7.28;3.52;;;21.40;50.30;;;;;;1468009;95;21292;-35
2020/12/23 03:19:28;;;;;;;6.45;3.20;;;21.40;50.40;;;;;;1479401;93;22059;-35
2020/12/23 03:21:56;;;;;;;5.97;2.90;;;21.40;50.30;;;;;;1482485;93;21307;-35
2020/12/23 03:24:24;;;;;;;6.15;3.00;;;21.40;50.40;;;;;;1458724;94;21172;-35
2020/12/23 03:26:51;;;;;;;7.12;2.80;;;21.40;50.40;;;;;;1474752;94;21256;-35
2020/12/23 03:29:19;;;;;;;7.75;2.67;;;21.40;50.30;;;;;;1461947;95;21380;-34
2020/12/23 03:31:47;;;;;;;4.72;2.50;;;21.50;50.40;;;;;;1480935;93;21271;-36
2020/12/23 03:34:14;;;;;;;3.58;1.92;;;21.50;50.30;;;;;;1463398;95;21165;-35
2020/12/23 03:36:42;;;;;;;5.60;2.70;;;21.50;50.90;;;;;;1468532;93;21277;-35
2020/12/23 03:39:10;;;;;;;5.03;2.95;;;21.50;50.30;;;;;;1480459;93;21852;-35
2020/12/23 03:41:37;;;;;;;5.05;2.85;;;21.50;50.30;;;;;;1473929;94;21288;-36
2020/12/23 03:44:05;;;;;;;5.00;2.22;;;21.50;50.30;;;;;;1449942;96;21854;-35
2020/12/23 03:46:33;;;;;;;6.22;2.60;;;21.50;50.20;;;;;;1480804;93;21239;-34
2020/12/23 03:49:01;;;;;;;6.35;2.67;;;21.50;50.20;;;;;;1482087;95;22141;-35
2020/12/23 03:51:28;;;;;;;3.75;2.37;;;21.50;50.20;;;;;;1503116;93;21212;-36
2020/12/23 03:53:56;;;;;;;4.37;2.45;;;21.50;50.20;;;;;;1497057;93;21622;-34
2020/12/23 03:56:23;;;;;;;5.15;2.85;;;21.50;50.20;;;;;;1486145;93;21224;-34
2020/12/23 03:58:51;;;;;;;3.22;2.52;;;21.50;50.80;;;;;;1498975;93;23120;-35
2020/12/23 04:01:19;;;;;;;4.17;2.17;;;21.50;50.20;;;;;;1512135;93;21220;-35
2020/12/23 04:03:47;;;;;;;5.25;2.65;;;21.50;50.10;;;;;;1467253;95;22297;-34
2020/12/23 04:06:14;;;;;;;5.37;2.75;;;21.50;50.10;;;;;;1500217;93;21321;-35
2020/12/23 04:08:42;;;;;;;3.80;2.33;;;21.60;50.20;;;;;;1482852;93;21779;-35
2020/12/23 04:11:11;;;;;;;6.00;2.50;;;21.50;50.10;;;;;;1484091;95;21266;-35
2020/12/23 04:13:38;;;;;;;5.25;3.12;;;21.50;50.10;;;;;;1502207;93;21290;-35
2020/12/23 04:16:06;;;;;;;5.47;2.50;;;21.60;50.20;;;;;;1499584;93;21180;-36
2020/12/23 04:18:34;;;;;;;4.03;2.72;;;21.60;50.10;;;;;;1507659;93;22665;-36
2020/12/23 04:21:01;;;;;;;4.92;2.77;;;21.60;50.10;;;;;;1507883;93;21228;-34
2020/12/23 04:23:29;;;;;;;4.65;2.27;;;21.60;50.20;;;;;;1517402;93;21745;-34
2020/12/23 04:25:56;;;;;;;4.33;2.30;;;21.60;50.10;;;;;;1504883;93;21276;-34
2020/12/23 04:28:24;;;;;;;4.97;2.42;;;21.60;50.10;;;;;;1489968;93;21360;-34
2020/12/23 04:30:52;;;;;;;3.65;2.35;;;21.60;50.10;;;;;;1505041;93;21715;-35
2020/12/23 04:33:19;;;;;;;7.37;2.95;;;21.60;50.10;;;;;;1513631;93;21189;-34
2020/12/23 04:35:47;;;;;;;5.50;2.75;;;21.60;50.10;;;;;;1504343;93;21220;-33
2020/12/23 04:38:15;;;;;;;5.00;2.60;;;21.60;50.10;;;;;;1496995;93;22299;-33
2020/12/23 04:40:42;;;;;;;5.20;2.70;;;21.60;50.10;;;;;;1505172;93;21219;-35
2020/12/23 04:43:10;;;;;;;4.55;2.42;;;21.60;50.10;;;;;;1472723;95;21242;-35
2020/12/23 04:45:38;;;;;;;5.97;2.45;;;21.60;50.20;;;;;;1503929;93;21275;-35
2020/12/23 04:48:08;;;;;;;4.62;2.83;;;21.60;50.10;;;;;;1508381;93;21308;-35
2020/12/23 04:50:37;;;;;;;6.67;2.50;;;21.60;50.20;;;;;;1510250;93;21310;-34
2020/12/23 04:53:05;;;;;;;3.15;2.05;;;21.60;50.10;;;;;;1508456;92;21232;-35
2020/12/23 04:55:32;;;;;;;4.55;2.60;;;21.60;50.10;;;;;;1487425;93;21232;-38
2020/12/23 04:58:00;;;;;;;3.37;2.08;;;21.60;50.10;;;;;;1504516;93;21215;-34
2020/12/23 05:00:28;;;;;;;5.35;2.98;;;21.60;50.10;;;;;;1499099;93;21387;-34
2020/12/23 05:02:56;;;;;;;5.55;2.58;;;21.60;50.10;;;;;;1503590;93;22391;-34
2020/12/23 05:05:23;;;;;;;4.12;2.47;;;21.60;50.10;;;;;;1515148;92;21185;-35
2020/12/23 05:07:51;;;;;;;4.15;2.25;;;21.60;50.10;;;;;;1496099;93;21278;-35
2020/12/23 05:10:19;;;;;;;5.62;2.22;;;21.60;50.00;;;;;;1486006;93;21335;-35
2020/12/23 05:12:47;;;;;;;5.30;2.58;;;21.60;50.00;;;;;;1502195;93;21211;-35
2020/12/23 05:15:15;;;;;;;4.45;2.22;;;21.60;50.00;;;;;;1504146;93;21231;-36
2020/12/23 05:17:46;;;;;;;5.62;2.42;;;21.60;50.00;;;;;;1509847;93;21262;-35
2020/12/23 05:20:14;;;;;;;3.95;2.37;;;21.60;50.00;;;;;;1504507;93;21339;-34
2020/12/23 05:22:49;;;;;;;4.35;2.45;;;21.60;50.00;;;;;;1486422;93;21315;-34
2020/12/23 05:25:19;;;;;;;4.72;2.70;;;21.60;50.00;;;;;;1498967;93;21271;-35
2020/12/23 05:27:49;;;;;;;5.50;2.12;;;21.60;50.00;;;;;;1503539;93;21218;-34
2020/12/23 05:30:19;;;;;;;3.55;2.25;;;21.60;50.40;;;;;;1505719;93;21397;-35
2020/12/23 05:32:47;;;;;;;4.05;2.15;;;21.60;50.00;;;;;;1488370;93;21244;-35
2020/12/23 05:35:16;;;;;;;5.40;2.50;;;21.60;50.00;;;;;;1481578;93;21333;-35
2020/12/23 05:37:44;;;;;;;3.62;1.87;;;21.60;50.00;;;;;;1508441;92;21240;-35
2020/12/23 05:40:13;;;;;;;4.72;2.58;;;21.60;50.00;;;;;;1469410;93;21303;-35
2020/12/23 05:42:41;;;;;;;4.40;2.40;;;21.60;50.00;;;;;;1498405;93;22826;-35
2020/12/23 05:45:09;;;;;;;3.70;2.00;;;21.60;50.00;;;;;;1505704;93;21791;-36
2020/12/23 05:47:37;;;;;;;3.35;1.98;;;21.60;50.00;;;;;;1486587;93;21422;-35
2020/12/23 05:50:10;;;;;;;4.12;1.95;;;21.60;50.00;;;;;;1507521;93;21948;-35
2020/12/23 05:52:38;;;;;;;4.60;2.00;;;21.60;50.00;;;;;;1485899;93;22618;-35
2020/12/23 05:55:17;;;;;;;4.20;2.27;;;21.60;50.00;;;;;;1492519;94;21315;-35
2020/12/23 05:57:45;;;;;;;2.67;1.92;;;21.60;50.00;;;;;;1509017;93;21238;-34
2020/12/23 06:00:13;;;;;;;3.67;2.12;;;21.60;50.00;;;;;;1478539;92;21284;-34
2020/12/23 06:02:49;;;;;;;3.22;1.80;;;21.60;50.00;;;;;;1509225;93;21283;-34
2020/12/23 06:05:19;;;;;;;2.58;1.75;;;21.60;50.30;;;;;;1500669;93;21225;-35
2020/12/23 06:07:50;;;;;;;5.05;2.10;;;21.60;50.00;;;;;;1492432;93;21232;-34
2020/12/23 06:10:21;;;;;;;4.05;2.10;;;21.60;50.00;;;;;;1505928;93;21196;-34
2020/12/23 06:12:51;;;;;;;2.37;1.75;;;21.60;50.00;;;;;;1499376;94;21252;-35
2020/12/23 06:15:22;;;;;;;5.25;2.08;;;21.60;50.00;;;;;;1503567;93;21248;-35
2020/12/23 06:17:50;;;;;;;6.33;2.20;;;21.60;49.90;;;;;;1515994;93;21188;-35
2020/12/23 06:20:19;;;;;;;3.12;2.10;;;21.60;49.90;;;;;;1519656;93;21196;-34
2020/12/23 06:22:48;;;;;;;4.17;2.08;;;21.70;50.00;;;;;;1511118;93;22445;-35
2020/12/23 06:25:16;;;;;;;4.85;2.35;;;21.60;49.90;;;;;;1510856;93;21251;-36
2020/12/23 06:27:46;;;;;;;3.87;1.60;;;21.60;50.00;;;;;;1487940;93;21429;-36
2020/12/23 06:30:14;;;;;;;4.35;1.85;;;21.60;49.90;;;;;;1511593;93;21264;-34
2020/12/23 06:32:42;;;;;;;4.25;2.22;;;21.60;50.00;;;;;;1504865;93;21196;-34
2020/12/23 06:35:10;;;;;;;4.30;2.15;;;21.60;49.90;;;;;;1505262;93;21647;-35
2020/12/23 06:37:38;;;;;;;3.72;1.90;;;21.60;49.90;;;;;;1488699;94;21370;-35
2020/12/23 06:40:10;;;;;;;4.28;2.02;;;21.60;49.90;;;;;;1507373;93;21342;-35
2020/12/23 06:42:39;;;;;;;3.10;2.00;;;21.60;49.90;;;;;;1511581;93;21218;-34
2020/12/23 06:45:08;;;;;;;3.87;1.60;;;21.70;50.00;;;;;;1507930;93;21188;-36
2020/12/23 06:47:38;;;;;;;2.45;1.67;;;21.60;49.90;;;;;;1474268;93;21322;-36
2020/12/23 06:50:13;;;;;;;3.10;1.80;;;21.60;49.90;;;;;;1478119;95;21298;-35
2020/12/23 06:52:44;;;;;;;4.72;2.15;;;21.60;49.90;;;;;;1458556;95;22092;-35
2020/12/23 06:55:16;;;;;;;3.42;2.30;;;21.60;49.90;;;;;;1457434;95;21182;-34
2020/12/23 06:57:46;;;;;;;3.75;1.67;;;21.60;49.90;;;;;;1479078;94;21702;-35
2020/12/23 07:00:16;;;;;;;2.65;1.75;;;21.60;49.90;;;;;;1480305;93;21468;-36
2020/12/23 07:02:47;;;;;;;3.65;1.82;;;21.70;50.00;;;;;;1478420;94;21246;-34
2020/12/23 07:05:23;;;;;;;4.55;2.10;;;21.60;49.90;;;;;;1461636;95;21208;-34
2020/12/23 07:07:50;;;;;;;;;;;21.60;49.90;;;;;;1483472;95;21203;-34
2020/12/23 07:10:22;;;;;;;2.90;1.80;;;21.60;49.90;;;;;;1479037;94;20301;-34
2020/12/23 07:13:01;;;;;;;2.72;1.62;;;21.60;49.90;;;;;;1489772;93;21347;-34
2020/12/23 07:15:40;;;;;;;3.50;1.90;;;21.60;50.00;;;;;;1467803;95;21647;-35
2020/12/23 07:18:16;;;;;;;3.05;2.08;;;21.60;49.90;;;;;;1478502;95;21252;-36
2020/12/23 07:20:52;;;;;;;4.25;1.77;;;21.60;50.00;;;;;;1466001;95;21383;-35
2020/12/23 07:23:21;;;;;;;6.05;2.05;;;21.70;50.00;;;;;;1497570;92;21230;-35
2020/12/23 07:25:51;;;;;;;4.42;1.70;;;21.60;49.90;;;;;;1480542;95;21146;-34
2020/12/23 07:28:41;;;;;;;2.90;1.65;;;21.60;49.90;;;;;;1454855;95;21201;-35
2020/12/23 07:31:11;;;;;;;3.02;1.98;;;21.70;50.00;;;;;;1486753;91;67861;-36
2020/12/23 07:33:39;;;;;;;3.17;1.65;;;21.60;49.90;;;;;;1464247;93;21322;-34
2020/12/23 07:36:09;;;;;;;2.75;1.77;;;21.70;50.00;;;;;;1492177;93;21859;-35
2020/12/23 07:38:38;;;;;;;3.72;1.95;;;21.60;49.90;;;;;;1492442;93;21389;-36
2020/12/23 07:41:08;;;;;;;2.85;1.87;;;21.70;50.00;;;;;;1480616;95;22428;-35
2020/12/23 07:43:36;;;;;;;2.90;1.80;;;21.60;49.90;;;;;;1484660;93;22443;-33
2020/12/23 07:46:03;;;;;;;3.50;1.92;;;21.60;49.90;;;;;;1471704;95;21319;-35
2020/12/23 07:48:31;;;;;;;4.37;1.95;;;21.60;49.90;;;;;;1477509;94;21264;-37
2020/12/23 07:50:59;;;;;;;2.50;1.40;;;21.70;49.90;;;;;;1485262;93;21277;-34
2020/12/23 07:53:28;;;;;;;2.15;1.45;;;21.60;49.90;;;;;;1460105;95;21300;-34
2020/12/23 07:56:06;;;;;;;3.35;1.72;;;21.70;49.90;;;;;;1473697;93;21236;-34
2020/12/23 07:58:35;;;;;;;2.92;1.82;;;21.70;49.90;;;;;;1478487;94;21218;-35
2020/12/23 08:01:06;;;;;;;3.35;1.82;;;21.70;49.90;;;;;;1446476;96;21675;-36
2020/12/23 08:03:34;;;;;;;3.33;1.95;;;21.70;49.90;;;;;;1476194;93;21331;-34
2020/12/23 08:06:10;;;;;;;2.83;1.62;;;21.60;49.90;;;;;;1474232;94;22117;-34
2020/12/23 08:08:39;;;;;;;2.55;1.82;;;21.70;49.90;;;;;;1449486;95;21201;-35
2020/12/23 08:11:12;;;;;;;2.87;1.62;;;21.70;49.90;;;;;;1474625;94;21229;-36
2020/12/23 08:13:41;;;;;;;2.58;1.60;;;21.70;49.90;;;;;;1462349;95;21658;-34
2020/12/23 08:16:16;;;;;;;2.65;1.70;;;21.70;49.90;;;;;;1474600;94;21374;-34
2020/12/23 08:18:46;;;;;;;1.80;1.52;;;21.70;49.90;;;;;;1480794;94;21181;-38
2020/12/23 08:21:20;;;;;;;3.17;1.40;;;21.70;49.90;;;;;;1489828;94;21222;-34
2020/12/23 08:23:49;;;;;;;2.70;1.62;;;21.70;49.90;;;;;;1479631;94;21314;-35
2020/12/23 08:26:17;;;;;;;3.15;1.50;;;21.70;49.90;;;;;;1479633;93;21702;-35
2020/12/23 08:28:46;;;;;;;2.27;1.80;;;21.70;49.80;;;;;;1483015;95;21753;-36
2020/12/23 08:31:16;;;;;;;3.87;1.90;;;21.70;49.90;;;;;;1482939;95;21183;-33
2020/12/23 08:33:46;;;;;;;4.42;1.90;;;21.70;49.90;;;;;;1460090;93;21348;-35
2020/12/23 08:36:15;;;;;;;2.40;1.80;;;21.70;49.90;;;;;;1471010;93;21864;-35
2020/12/23 08:38:43;;;;;;;2.70;1.40;;;21.70;50.40;;;;;;1482749;93;21190;-36
2020/12/23 08:41:14;;;;;;;1.77;1.42;;;21.70;49.80;;;;;;1460022;95;21253;-35
2020/12/23 08:43:47;;;;;;;2.40;1.50;;;21.70;49.90;;;;;;1481524;93;21791;-35
2020/12/23 08:46:26;;;;;;;2.98;1.37;;;21.70;49.80;;;;;;1483595;94;21295;-35
2020/12/23 08:48:55;;;;;;;2.30;1.52;;;21.70;49.80;;;;;;1478963;93;21242;-36
2020/12/23 08:51:25;;;;;;;3.52;1.65;;;21.70;49.80;;;;;;1478723;95;21720;-36
2020/12/23 08:53:54;;;;;;;2.25;1.67;;;21.70;49.80;;;;;;1471976;93;21473;-37
2020/12/23 08:56:27;;;;;;;2.47;1.55;;;21.70;49.90;;;;;;1479349;94;21256;-35
2020/12/23 08:59:05;;;;;;;2.95;1.50;;;21.70;49.90;;;;;;1477917;94;21224;-35
2020/12/23 09:01:35;;;;;;;2.55;1.57;;;21.70;49.90;;;;;;1449650;95;21342;-35
2020/12/23 09:04:09;;;;;;;2.98;1.67;;;21.70;49.90;;;;;;1480921;95;21681;-35
2020/12/23 09:06:39;;;;;;;1.65;1.35;;;21.70;49.90;;;;;;1477499;94;21380;-35
2020/12/23 09:09:17;;;;;;;2.17;1.60;;;21.70;50.00;;;;;;1463444;95;21257;-35
2020/12/23 09:11:50;;;;;;;1.45;1.22;;;21.70;50.00;;;;;;1476113;95;21148;-35
2020/12/23 09:14:29;;;;;;;2.67;1.50;;;21.60;49.90;;;;;;1472024;94;21213;-35
2020/12/23 09:17:08;;;;;;;3.27;1.30;;;21.70;49.90;;;;;;1478802;95;21402;-35
2020/12/23 09:19:46;;;;;;;2.12;1.47;;;21.70;49.90;;;;;;1487753;93;68071;-36
2020/12/23 09:22:39;;;;;;;3.92;1.70;;;21.70;50.00;;;;;;1489981;94;21275;-35
2020/12/23 09:25:15;;;;;;;2.08;1.35;;;21.70;49.90;;;;;;1498050;91;67692;-35
2020/12/23 09:27:44;;;;;;;4.22;1.45;;;21.70;49.90;;;;;;1488499;94;21235;-34
2020/12/23 09:30:12;;;;;;;2.05;1.60;;;21.70;49.90;;;;;;1498957;93;21255;-35
2020/12/23 09:32:54;;;;;;;2.45;1.37;;;21.70;49.80;;;;;;1493380;93;21243;-34
2020/12/23 09:35:24;;;;;;;2.62;1.57;;;21.70;49.80;;;;;;1488323;93;21746;-35
2020/12/23 09:38:27;;;;;;;3.22;1.57;;;21.70;49.80;;;;;;1491206;93;21643;-34
2020/12/23 09:40:55;;;;;;;3.00;1.60;;;21.70;49.80;;;;;;1488921;91;67509;-37
2020/12/23 09:43:26;;;;;;;2.62;1.30;;;21.70;49.90;;;;;;1490132;94;21203;-34
2020/12/23 09:45:56;;;;;;;1.87;1.42;;;21.70;49.80;;;;;;1492707;94;21765;-35
2020/12/23 09:48:26;;;;;;;3.40;1.37;;;21.70;49.90;;;;;;1478502;94;21768;-35
2020/12/23 09:50:54;;;;;;;2.12;1.27;;;21.70;49.80;;;;;;1490658;93;21235;-35
2020/12/23 09:53:23;;;;;;;1.47;1.17;;;21.70;49.80;;;;;;1494079;93;21255;-35
2020/12/23 09:55:51;;;;;;;2.35;1.22;;;21.80;50.50;;;;;;1490131;93;21227;-40
2020/12/23 09:58:19;;;;;;;3.27;1.42;;;;;;;;;;1492454;93;21832;-33
2020/12/23 10:00:47;;;;;;;1.40;1.02;;;21.70;50.10;;;;;;1460551;94;21176;-35
2020/12/23 10:03:16;;;;;;;2.85;1.20;;;21.70;50.60;;;;;;1466231;94;21714;-37
2020/12/23 10:05:43;;;;;;;5.00;1.12;;;21.80;50.60;;;;;;1468462;93;21194;-35
2020/12/23 10:08:11;;;;;;;1.85;1.22;;;21.80;50.60;;;;;;1475002;94;21216;-35
2020/12/23 10:10:39;;;;;;;3.35;1.20;;;21.80;50.60;;;;;;1489285;94;21264;-34
2020/12/23 10:13:07;;;;;;;2.70;1.60;;;21.80;50.50;;;;;;1495473;93;21715;-35
2020/12/23 10:15:34;;;;;;;3.42;1.40;;;;;;;;;;1456271;94;21549;-32
2020/12/23 10:18:02;;;;;;;4.47;1.02;;;21.80;50.80;;;;;;1481397;93;21172;-35
2020/12/23 10:20:29;;;;;;;1.57;1.00;;;21.90;50.70;;;;;;1485343;93;21291;-35
2020/12/23 10:22:57;;;;;;;6.15;1.10;;;21.90;50.70;;;;;;1456753;94;21267;-35
2020/12/23 10:25:25;;;;;;;2.30;1.30;;;21.90;50.70;;;;;;1488275;93;21620;-34
2020/12/23 10:27:52;;;;;;;1.70;1.30;;;21.90;50.70;;;;;;1463944;94;21273;-33
2020/12/23 10:30:20;;;;;;;1.27;1.05;;;21.90;50.80;;;;;;1474451;94;21229;-35
2020/12/23 10:32:47;;;;;;;1.15;0.90;;;21.80;50.70;;;;;;1489900;94;21210;-34
2020/12/23 10:35:15;;;;;;;2.22;1.02;;;21.80;50.80;;;;;;1460569;95;21839;-34
2020/12/23 10:37:44;;;;;;;2.45;1.30;;;21.90;50.80;;;;;;1486128;93;21230;-34
2020/12/23 10:40:12;;;;;;;1.27;0.82;;;21.80;50.80;;;;;;1484847;93;21418;-35
2020/12/23 10:42:40;;;;;;;3.47;1.00;;;21.80;50.70;;;;;;1475353;94;21235;-35
2020/12/23 10:45:07;;;;;;;4.45;1.10;;;21.90;50.80;;;;;;1492593;94;21298;-36
2020/12/23 10:47:35;;;;;;;1.85;0.78;;;21.90;50.60;;;;;;1460402;94;21274;-35
2020/12/23 10:50:04;;;;;;;1.67;0.95;;;21.90;50.60;;;;;;1490439;93;21297;-36
2020/12/23 10:52:32;;;;;;;1.40;0.98;;;21.90;50.60;;;;;;1505221;93;21230;-35
2020/12/23 10:55:00;;;;;;;1.37;0.88;;;21.90;50.70;;;;;;1476839;93;21274;-35
2020/12/23 10:57:33;;;;;;;5.00;1.20;;;21.90;50.80;;;;;;1504922;92;21683;-35
2020/12/23 10:59:57;;;;;;;1.57;0.70;;;21.90;50.70;;;;;;1503976;92;21762;-37
2020/12/23 11:02:24;;;;;;;2.85;0.93;;;21.90;50.70;;;;;;1505674;93;21187;-36
2020/12/23 11:04:52;;;;;;;1.05;0.75;;;;;;;;;;1506284;93;21489;-33
2020/12/23 11:07:19;;;;;;;4.03;0.80;;;21.90;50.60;;;;;;1507191;92;21667;-36
2020/12/23 11:09:47;;;;;;;2.92;0.80;;;21.90;50.60;;;;;;1491494;94;21226;-36
2020/12/23 11:12:15;;;;;;;3.65;0.85;;;21.80;50.60;;;;;;1504591;92;21290;-36
2020/12/23 11:14:44;;;;;;;2.77;1.20;;;21.90;50.50;;;;;;1496951;93;21286;-36
2020/12/23 11:17:12;;;;;;;1.27;0.78;;;;;;;;;;1507793;92;21213;-33
2020/12/23 11:19:40;;;;;;;5.15;1.40;;;21.90;50.50;;;;;;1507625;93;21461;-35
2020/12/23 11:22:08;;;;;;;0.93;0.60;;;21.90;50.60;;;;;;1507393;92;21191;-35
2020/12/23 11:24:36;;;;;;;2.87;0.60;;;21.80;50.50;;;;;;1510222;93;21314;-37
2020/12/23 11:27:03;;;;;;;1.07;0.70;;;21.90;50.50;;;;;;1511878;93;21847;-35
2020/12/23 11:29:31;;;;;;;1.67;1.35;;;21.90;50.70;;;;;;1488880;92;21221;-36
2020/12/23 11:31:59;;;;;;;0.80;0.70;;;22.00;50.90;;;;;;1509577;93;21167;-36
2020/12/23 11:34:27;;;;;;;1.07;0.72;;;22.00;51.00;;;;;;1490505;93;21698;-37
2020/12/23 11:36:56;;;;;;;3.92;0.95;;;22.00;51.10;;;;;;1505356;93;21282;-36
2020/12/23 11:39:24;;;;;;;1.20;0.70;;;22.00;51.10;;;;;;1516665;92;21234;-34
2020/12/23 11:42:03;;;;;;;2.05;0.90;;;22.10;51.10;;;;;;1509434;92;21331;-36
2020/12/23 11:44:28;;;;;;;2.50;1.05;;;22.10;50.90;;;;;;1510495;93;21346;-35
2020/12/23 11:46:57;;;;;;;2.70;0.98;;;22.20;50.90;;;;;;1492594;93;21203;-36
2020/12/23 11:49:25;;;;;;;1.50;0.90;;;22.20;51.20;;;;;;1506286;93;21398;-35
2020/12/23 11:51:53;;;;;;;2.98;1.00;;;22.20;50.80;;;;;;1494411;92;21219;-36
2020/12/23 11:54:21;;;;;;;1.50;1.00;;;22.20;50.80;;;;;;1494183;93;21406;-35
2020/12/23 11:56:53;;;;;;;7.10;1.25;;;22.30;50.90;;;;;;1475800;94;21677;-36
2020/12/23 11:59:18;;;;;;;4.75;0.90;;;22.30;50.90;;;;;;1490116;93;21457;-37
2020/12/23 12:01:46;;;;;;;2.72;0.90;;;22.30;50.80;;;;;;1469795;93;21311;-37
2020/12/23 12:04:14;;;;;;;4.78;1.00;;;22.40;50.80;;;;;;1491866;93;21302;-36
2020/12/23 12:06:41;;;;;;;2.70;1.12;;;22.40;50.60;;;;;;1492340;93;21210;-37
2020/12/23 12:09:09;;;;;;;2.90;1.00;;;22.40;50.10;;;;;;1477982;93;21184;-36
2020/12/23 12:11:37;;;;;;;3.90;1.27;;;22.40;50.50;;;;;;1491422;93;21299;-35
2020/12/23 12:14:05;;;;;;;1.98;0.80;;;22.40;50.50;;;;;;1489652;93;21144;-37
2020/12/23 12:16:33;;;;;;;1.30;0.98;;;22.40;50.60;;;;;;1461150;94;21291;-35
2020/12/23 12:19:01;;;;;;;2.75;1.10;;;22.50;50.40;;;;;;1489915;94;21224;-36
2020/12/23 12:21:29;;;;;;;2.98;1.15;;;22.50;50.40;;;;;;1491526;94;21652;-37
2020/12/23 12:23:57;;;;;;;2.95;0.90;;;22.50;50.30;;;;;;1491464;93;21224;-36
2020/12/23 12:26:32;;;;;;;2.62;1.17;;;22.60;50.90;;;;;;1492661;93;21711;-37
2020/12/23 12:29:01;;;;;;;3.12;0.85;;;22.60;50.30;;;;;;1491366;93;21207;-36
2020/12/23 12:31:29;;;;;;;2.70;1.37;;;22.50;50.30;;;;;;1493102;93;21228;-37
2020/12/23 12:33:57;;;;;;;3.10;1.10;;;22.50;50.60;;;;;;1491131;93;21318;-37
2020/12/23 12:36:26;;;;;;;3.87;1.55;;;22.60;51.20;;;;;;1492787;93;22197;-36
2020/12/23 12:38:53;;;;;;;9.58;1.72;;;22.60;52.40;;;;;;1491044;93;21231;-36
2020/12/23 12:41:26;;;;;;;4.55;1.70;;;22.50;52.60;;;;;;1488537;93;21199;-37
2020/12/23 12:43:56;;;;;;;4.72;1.70;;;22.60;52.90;;;;;;1491350;93;21250;-37
2020/12/23 12:46:25;;;;;;;4.42;1.40;;;22.60;52.90;;;;;;1493404;93;21160;-36
2020/12/23 12:48:53;;;;;;;7.37;1.95;;;22.60;53.30;;;;;;1488282;93;21220;-36
2020/12/23 12:51:30;;;;;;;7.65;1.47;;;22.60;53.50;;;;;;1496185;93;21983;-36
2020/12/23 12:53:58;;;;;;;4.05;1.70;;;22.60;53.40;;;;;;1480403;93;21269;-37
2020/12/23 12:56:31;;;;;;;3.80;1.55;;;22.60;53.60;;;;;;1510026;92;21207;-37
2020/12/23 12:59:02;;;;;;;8.38;1.72;;;22.60;53.70;;;;;;1510061;92;21341;-38